sensor_id;sensor_type;location;lat;lon;timestamp;P1;durP1;ratioP1;P2;durP2;ratioP2
12756;SDS011;31601;48.042;12.240;2022-11-15T00:02:06;11.73;;;8.43;;
12756;SDS011;31601;48.042;12.240;2022-11-15T00:04:33;12.00;;;8.30;;
12756;SDS011;31601;48.042;12.240;2022-11-15T00:07:01;13.17;;;9.40;;
12756;SDS011;31601;48.042;12.240;2022-11-15T00:09:27;11.53;;;9.43;;
12756;SDS011;31601;48.042;12.240;2022-11-15T00:11:54;11.63;;;8.60;;
12756;SDS011;31601;48.042;12.240;2022-11-15T00:14:20;11.80;;;8.40;;
12756;SDS011;31601;48.042;12.240;2022-11-15T00:16:47;11.70;;;9.13;;
12756;SDS011;31601;48.042;12.240;2022-11-15T00:19:13;12.77;;;9.20;;
12756;SDS011;31601;48.042;12.240;2022-11-15T00:21:40;10.53;;;8.43;;
12756;SDS011;31601;48.042;12.240;2022-11-15T00:24:08;10.73;;;7.93;;
12756;SDS011;31601;48.042;12.240;2022-11-15T00:26:35;10.50;;;8.07;;
12756;SDS011;31601;48.042;12.240;2022-11-15T00:29:01;10.90;;;8.03;;
12756;SDS011;31601;48.042;12.240;2022-11-15T00:31:28;8.93;;;7.43;;
12756;SDS011;31601;48.042;12.240;2022-11-15T00:33:55;8.70;;;7.27;;
12756;SDS011;31601;48.042;12.240;2022-11-15T00:36:21;11.93;;;8.30;;
12756;SDS011;31601;48.042;12.240;2022-11-15T00:38:48;10.67;;;8.47;;
12756;SDS011;31601;48.042;12.240;2022-11-15T00:41:16;13.07;;;9.50;;
12756;SDS011;31601;48.042;12.240;2022-11-15T00:43:42;13.77;;;9.80;;
12756;SDS011;31601;48.042;12.240;2022-11-15T00:46:09;11.00;;;8.73;;
12756;SDS011;31601;48.042;12.240;2022-11-15T00:48:36;10.73;;;9.23;;
12756;SDS011;31601;48.042;12.240;2022-11-15T00:51:03;10.87;;;8.93;;
12756;SDS011;31601;48.042;12.240;2022-11-15T00:53:29;13.77;;;9.13;;
12756;SDS011;31601;48.042;12.240;2022-11-15T00:55:56;12.17;;;8.63;;
12756;SDS011;31601;48.042;12.240;2022-11-15T00:58:23;11.37;;;8.47;;
12756;SDS011;31601;48.042;12.240;2022-11-15T01:00:50;12.10;;;8.60;;
12756;SDS011;31601;48.042;12.240;2022-11-15T01:03:17;10.43;;;8.13;;
12756;SDS011;31601;48.042;12.240;2022-11-15T01:05:43;14.23;;;9.97;;
12756;SDS011;31601;48.042;12.240;2022-11-15T01:08:11;11.53;;;8.80;;
12756;SDS011;31601;48.042;12.240;2022-11-15T01:10:38;8.87;;;7.60;;
12756;SDS011;31601;48.042;12.240;2022-11-15T01:13:05;9.30;;;8.13;;
12756;SDS011;31601;48.042;12.240;2022-11-15T01:15:33;15.27;;;8.60;;
12756;SDS011;31601;48.042;12.240;2022-11-15T01:17:59;10.87;;;7.63;;
12756;SDS011;31601;48.042;12.240;2022-11-15T01:20:26;11.60;;;8.13;;
12756;SDS011;31601;48.042;12.240;2022-11-15T01:22:52;11.00;;;8.30;;
12756;SDS011;31601;48.042;12.240;2022-11-15T01:25:19;9.60;;;8.13;;
12756;SDS011;31601;48.042;12.240;2022-11-15T01:27:45;10.77;;;8.03;;
12756;SDS011;31601;48.042;12.240;2022-11-15T01:30:12;9.97;;;8.00;;
12756;SDS011;31601;48.042;12.240;2022-11-15T01:32:40;8.83;;;7.83;;
12756;SDS011;31601;48.042;12.240;2022-11-15T01:35:07;10.30;;;7.73;;
12756;SDS011;31601;48.042;12.240;2022-11-15T01:37:34;13.53;;;7.50;;
12756;SDS011;31601;48.042;12.240;2022-11-15T01:40:00;12.13;;;8.27;;
12756;SDS011;31601;48.042;12.240;2022-11-15T01:42:27;11.70;;;7.20;;
12756;SDS011;31601;48.042;12.240;2022-11-15T01:44:53;9.33;;;7.30;;
12756;SDS011;31601;48.042;12.240;2022-11-15T01:47:21;9.37;;;7.23;;
12756;SDS011;31601;48.042;12.240;2022-11-15T01:49:55;9.27;;;7.07;;
12756;SDS011;31601;48.042;12.240;2022-11-15T01:52:25;9.83;;;7.37;;
12756;SDS011;31601;48.042;12.240;2022-11-15T01:54:56;9.07;;;7.20;;
12756;SDS011;31601;48.042;12.240;2022-11-15T01:57:27;8.83;;;6.80;;
12756;SDS011;31601;48.042;12.240;2022-11-15T01:59:54;8.47;;;7.17;;
12756;SDS011;31601;48.042;12.240;2022-11-15T02:02:21;10.10;;;7.10;;
12756;SDS011;31601;48.042;12.240;2022-11-15T02:04:47;9.00;;;7.47;;
12756;SDS011;31601;48.042;12.240;2022-11-15T02:07:16;9.53;;;7.17;;
12756;SDS011;31601;48.042;12.240;2022-11-15T02:09:44;9.23;;;7.83;;
12756;SDS011;31601;48.042;12.240;2022-11-15T02:12:12;12.10;;;8.20;;
12756;SDS011;31601;48.042;12.240;2022-11-15T02:14:42;10.83;;;8.80;;
12756;SDS011;31601;48.042;12.240;2022-11-15T02:17:15;11.07;;;8.50;;
12756;SDS011;31601;48.042;12.240;2022-11-15T02:22:57;11.03;;;9.33;;
12756;SDS011;31601;48.042;12.240;2022-11-15T02:25:39;12.50;;;8.30;;
12756;SDS011;31601;48.042;12.240;2022-11-15T02:28:16;13.17;;;8.73;;
12756;SDS011;31601;48.042;12.240;2022-11-15T02:30:59;12.10;;;8.03;;
12756;SDS011;31601;48.042;12.240;2022-11-15T02:33:33;12.83;;;8.47;;
12756;SDS011;31601;48.042;12.240;2022-11-15T02:36:05;11.83;;;8.27;;
12756;SDS011;31601;48.042;12.240;2022-11-15T02:38:40;8.80;;;7.07;;
12756;SDS011;31601;48.042;12.240;2022-11-15T02:41:14;7.70;;;6.63;;
12756;SDS011;31601;48.042;12.240;2022-11-15T02:43:46;7.83;;;6.77;;
12756;SDS011;31601;48.042;12.240;2022-11-15T02:46:26;8.83;;;7.30;;
12756;SDS011;31601;48.042;12.240;2022-11-15T02:49:15;8.57;;;6.87;;
12756;SDS011;31601;48.042;12.240;2022-11-15T02:51:42;8.80;;;6.90;;
12756;SDS011;31601;48.042;12.240;2022-11-15T02:54:13;9.60;;;7.37;;
12756;SDS011;31601;48.042;12.240;2022-11-15T02:56:43;7.90;;;6.50;;
12756;SDS011;31601;48.042;12.240;2022-11-15T02:59:21;6.83;;;6.03;;
12756;SDS011;31601;48.042;12.240;2022-11-15T03:02:04;8.40;;;6.67;;
12756;SDS011;31601;48.042;12.240;2022-11-15T03:04:44;12.23;;;6.33;;
12756;SDS011;31601;48.042;12.240;2022-11-15T03:07:14;7.47;;;6.37;;
12756;SDS011;31601;48.042;12.240;2022-11-15T03:09:46;8.73;;;6.77;;
12756;SDS011;31601;48.042;12.240;2022-11-15T03:12:20;8.53;;;6.97;;
12756;SDS011;31601;48.042;12.240;2022-11-15T03:14:53;10.10;;;6.43;;
12756;SDS011;31601;48.042;12.240;2022-11-15T03:17:25;8.17;;;6.70;;
12756;SDS011;31601;48.042;12.240;2022-11-15T03:19:56;7.40;;;6.20;;
12756;SDS011;31601;48.042;12.240;2022-11-15T03:22:25;7.43;;;6.20;;
12756;SDS011;31601;48.042;12.240;2022-11-15T03:24:56;8.57;;;6.60;;
12756;SDS011;31601;48.042;12.240;2022-11-15T03:27:28;9.60;;;6.97;;
12756;SDS011;31601;48.042;12.240;2022-11-15T03:30:00;6.70;;;5.93;;
12756;SDS011;31601;48.042;12.240;2022-11-15T03:32:31;7.83;;;5.93;;
12756;SDS011;31601;48.042;12.240;2022-11-15T03:35:04;7.27;;;5.87;;
12756;SDS011;31601;48.042;12.240;2022-11-15T03:37:34;7.23;;;5.90;;
12756;SDS011;31601;48.042;12.240;2022-11-15T03:40:04;8.93;;;6.57;;
12756;SDS011;31601;48.042;12.240;2022-11-15T03:42:32;9.87;;;6.60;;
12756;SDS011;31601;48.042;12.240;2022-11-15T03:45:06;8.23;;;6.53;;
12756;SDS011;31601;48.042;12.240;2022-11-15T03:47:41;9.53;;;7.47;;
12756;SDS011;31601;48.042;12.240;2022-11-15T03:50:13;8.93;;;6.60;;
12756;SDS011;31601;48.042;12.240;2022-11-15T03:52:43;8.83;;;7.47;;
12756;SDS011;31601;48.042;12.240;2022-11-15T03:55:13;9.67;;;7.50;;
12756;SDS011;31601;48.042;12.240;2022-11-15T03:57:44;8.70;;;6.67;;
12756;SDS011;31601;48.042;12.240;2022-11-15T04:00:11;7.80;;;6.83;;
12756;SDS011;31601;48.042;12.240;2022-11-15T04:02:38;8.60;;;6.97;;
12756;SDS011;31601;48.042;12.240;2022-11-15T04:05:06;10.27;;;6.80;;
12756;SDS011;31601;48.042;12.240;2022-11-15T04:07:33;11.30;;;7.13;;
12756;SDS011;31601;48.042;12.240;2022-11-15T04:10:00;8.67;;;6.77;;
12756;SDS011;31601;48.042;12.240;2022-11-15T04:12:30;10.00;;;7.30;;
12756;SDS011;31601;48.042;12.240;2022-11-15T04:14:58;9.17;;;6.50;;
12756;SDS011;31601;48.042;12.240;2022-11-15T04:17:35;8.67;;;6.50;;
12756;SDS011;31601;48.042;12.240;2022-11-15T04:20:06;8.73;;;6.60;;
12756;SDS011;31601;48.042;12.240;2022-11-15T04:22:52;8.67;;;6.80;;
12756;SDS011;31601;48.042;12.240;2022-11-15T04:25:37;8.10;;;6.37;;
12756;SDS011;31601;48.042;12.240;2022-11-15T04:28:04;6.93;;;5.90;;
12756;SDS011;31601;48.042;12.240;2022-11-15T04:30:30;6.83;;;6.03;;
12756;SDS011;31601;48.042;12.240;2022-11-15T04:32:56;8.30;;;6.93;;
12756;SDS011;31601;48.042;12.240;2022-11-15T04:35:24;13.73;;;8.73;;
12756;SDS011;31601;48.042;12.240;2022-11-15T04:37:51;11.13;;;7.93;;
12756;SDS011;31601;48.042;12.240;2022-11-15T04:40:17;11.83;;;9.20;;
12756;SDS011;31601;48.042;12.240;2022-11-15T04:42:44;11.37;;;8.63;;
12756;SDS011;31601;48.042;12.240;2022-11-15T04:45:11;11.40;;;8.83;;
12756;SDS011;31601;48.042;12.240;2022-11-15T04:47:37;11.80;;;8.57;;
12756;SDS011;31601;48.042;12.240;2022-11-15T04:50:04;12.50;;;8.87;;
12756;SDS011;31601;48.042;12.240;2022-11-15T04:52:33;10.93;;;8.33;;
12756;SDS011;31601;48.042;12.240;2022-11-15T04:54:59;10.97;;;8.37;;
12756;SDS011;31601;48.042;12.240;2022-11-15T04:57:26;9.80;;;8.50;;
12756;SDS011;31601;48.042;12.240;2022-11-15T04:59:52;11.30;;;8.60;;
12756;SDS011;31601;48.042;12.240;2022-11-15T05:02:19;11.07;;;8.23;;
12756;SDS011;31601;48.042;12.240;2022-11-15T05:04:45;11.43;;;8.20;;
12756;SDS011;31601;48.042;12.240;2022-11-15T05:07:10;10.67;;;8.37;;
12756;SDS011;31601;48.042;12.240;2022-11-15T05:09:38;12.73;;;8.50;;
12756;SDS011;31601;48.042;12.240;2022-11-15T05:12:05;12.47;;;8.43;;
12756;SDS011;31601;48.042;12.240;2022-11-15T05:14:31;12.23;;;8.33;;
12756;SDS011;31601;48.042;12.240;2022-11-15T05:16:58;11.70;;;9.33;;
12756;SDS011;31601;48.042;12.240;2022-11-15T05:19:24;11.27;;;8.63;;
12756;SDS011;31601;48.042;12.240;2022-11-15T05:21:51;11.67;;;9.27;;
12756;SDS011;31601;48.042;12.240;2022-11-15T05:24:17;13.10;;;10.10;;
12756;SDS011;31601;48.042;12.240;2022-11-15T05:26:45;16.50;;;10.07;;
12756;SDS011;31601;48.042;12.240;2022-11-15T05:29:11;12.90;;;9.13;;
12756;SDS011;31601;48.042;12.240;2022-11-15T05:31:39;13.60;;;9.40;;
12756;SDS011;31601;48.042;12.240;2022-11-15T05:34:07;12.57;;;9.60;;
12756;SDS011;31601;48.042;12.240;2022-11-15T05:36:34;11.23;;;8.23;;
12756;SDS011;31601;48.042;12.240;2022-11-15T05:39:03;11.00;;;9.23;;
12756;SDS011;31601;48.042;12.240;2022-11-15T05:41:32;11.23;;;8.40;;
12756;SDS011;31601;48.042;12.240;2022-11-15T05:44:02;11.50;;;8.10;;
12756;SDS011;31601;48.042;12.240;2022-11-15T05:46:33;11.53;;;8.40;;
12756;SDS011;31601;48.042;12.240;2022-11-15T05:49:01;11.77;;;9.07;;
12756;SDS011;31601;48.042;12.240;2022-11-15T05:51:28;15.53;;;9.00;;
12756;SDS011;31601;48.042;12.240;2022-11-15T05:53:55;10.93;;;8.63;;
12756;SDS011;31601;48.042;12.240;2022-11-15T05:56:24;10.97;;;8.00;;
12756;SDS011;31601;48.042;12.240;2022-11-15T05:58:51;10.90;;;8.47;;
12756;SDS011;31601;48.042;12.240;2022-11-15T06:01:20;10.67;;;7.63;;
12756;SDS011;31601;48.042;12.240;2022-11-15T06:03:47;11.27;;;9.00;;
12756;SDS011;31601;48.042;12.240;2022-11-15T06:06:13;10.97;;;8.10;;
12756;SDS011;31601;48.042;12.240;2022-11-15T06:08:40;14.53;;;8.40;;
12756;SDS011;31601;48.042;12.240;2022-11-15T06:11:07;16.20;;;9.47;;
12756;SDS011;31601;48.042;12.240;2022-11-15T06:13:34;12.77;;;9.47;;
12756;SDS011;31601;48.042;12.240;2022-11-15T06:16:00;11.73;;;8.63;;
12756;SDS011;31601;48.042;12.240;2022-11-15T06:18:31;12.53;;;8.80;;
12756;SDS011;31601;48.042;12.240;2022-11-15T06:20:58;14.33;;;9.17;;
12756;SDS011;31601;48.042;12.240;2022-11-15T06:23:25;12.50;;;9.83;;
12756;SDS011;31601;48.042;12.240;2022-11-15T06:25:51;14.13;;;10.20;;
12756;SDS011;31601;48.042;12.240;2022-11-15T06:28:18;15.47;;;10.17;;
12756;SDS011;31601;48.042;12.240;2022-11-15T06:30:44;16.97;;;9.60;;
12756;SDS011;31601;48.042;12.240;2022-11-15T06:33:11;14.13;;;9.33;;
12756;SDS011;31601;48.042;12.240;2022-11-15T06:35:38;12.43;;;8.67;;
12756;SDS011;31601;48.042;12.240;2022-11-15T06:38:07;14.23;;;8.13;;
12756;SDS011;31601;48.042;12.240;2022-11-15T06:40:35;12.67;;;8.23;;
12756;SDS011;31601;48.042;12.240;2022-11-15T06:43:03;9.40;;;7.47;;
12756;SDS011;31601;48.042;12.240;2022-11-15T06:45:30;9.93;;;7.90;;
12756;SDS011;31601;48.042;12.240;2022-11-15T06:47:58;10.77;;;8.50;;
12756;SDS011;31601;48.042;12.240;2022-11-15T06:50:24;13.70;;;8.13;;
12756;SDS011;31601;48.042;12.240;2022-11-15T06:52:52;12.57;;;8.30;;
12756;SDS011;31601;48.042;12.240;2022-11-15T06:55:19;11.43;;;7.93;;
12756;SDS011;31601;48.042;12.240;2022-11-15T06:57:46;11.33;;;8.63;;
12756;SDS011;31601;48.042;12.240;2022-11-15T07:00:14;11.87;;;8.50;;
12756;SDS011;31601;48.042;12.240;2022-11-15T07:02:43;11.30;;;8.13;;
12756;SDS011;31601;48.042;12.240;2022-11-15T07:05:10;9.63;;;7.83;;
12756;SDS011;31601;48.042;12.240;2022-11-15T07:07:37;12.47;;;8.73;;
12756;SDS011;31601;48.042;12.240;2022-11-15T07:10:07;12.17;;;8.90;;
12756;SDS011;31601;48.042;12.240;2022-11-15T07:12:34;8.77;;;7.57;;
12756;SDS011;31601;48.042;12.240;2022-11-15T07:15:00;14.57;;;10.37;;
12756;SDS011;31601;48.042;12.240;2022-11-15T07:17:27;12.73;;;9.53;;
12756;SDS011;31601;48.042;12.240;2022-11-15T07:19:53;10.73;;;8.60;;
12756;SDS011;31601;48.042;12.240;2022-11-15T07:22:20;14.17;;;9.00;;
12756;SDS011;31601;48.042;12.240;2022-11-15T07:24:46;10.13;;;9.03;;
12756;SDS011;31601;48.042;12.240;2022-11-15T07:27:14;10.40;;;8.83;;
12756;SDS011;31601;48.042;12.240;2022-11-15T07:29:40;14.63;;;10.17;;
12756;SDS011;31601;48.042;12.240;2022-11-15T07:32:07;15.07;;;10.87;;
12756;SDS011;31601;48.042;12.240;2022-11-15T07:34:33;12.30;;;9.97;;
12756;SDS011;31601;48.042;12.240;2022-11-15T07:37:00;15.97;;;10.90;;
12756;SDS011;31601;48.042;12.240;2022-11-15T07:39:27;17.50;;;10.50;;
12756;SDS011;31601;48.042;12.240;2022-11-15T07:41:53;14.77;;;10.90;;
12756;SDS011;31601;48.042;12.240;2022-11-15T07:44:41;15.03;;;10.57;;
12756;SDS011;31601;48.042;12.240;2022-11-15T07:47:08;15.03;;;10.60;;
12756;SDS011;31601;48.042;12.240;2022-11-15T07:49:34;12.37;;;9.30;;
12756;SDS011;31601;48.042;12.240;2022-11-15T07:52:01;12.43;;;9.67;;
12756;SDS011;31601;48.042;12.240;2022-11-15T07:54:27;14.50;;;10.50;;
12756;SDS011;31601;48.042;12.240;2022-11-15T07:56:54;16.67;;;11.47;;
12756;SDS011;31601;48.042;12.240;2022-11-15T07:59:20;12.97;;;11.23;;
12756;SDS011;31601;48.042;12.240;2022-11-15T08:01:48;13.77;;;11.20;;
12756;SDS011;31601;48.042;12.240;2022-11-15T08:04:14;14.13;;;10.23;;
12756;SDS011;31601;48.042;12.240;2022-11-15T08:06:41;12.97;;;10.93;;
12756;SDS011;31601;48.042;12.240;2022-11-15T08:09:07;13.53;;;10.57;;
12756;SDS011;31601;48.042;12.240;2022-11-15T08:11:34;15.43;;;11.53;;
12756;SDS011;31601;48.042;12.240;2022-11-15T08:14:00;14.93;;;12.23;;
12756;SDS011;31601;48.042;12.240;2022-11-15T08:16:27;13.90;;;10.73;;
12756;SDS011;31601;48.042;12.240;2022-11-15T08:18:55;12.60;;;10.57;;
12756;SDS011;31601;48.042;12.240;2022-11-15T08:21:21;15.53;;;11.83;;
12756;SDS011;31601;48.042;12.240;2022-11-15T08:23:49;12.43;;;10.60;;
12756;SDS011;31601;48.042;12.240;2022-11-15T08:26:15;12.27;;;9.73;;
12756;SDS011;31601;48.042;12.240;2022-11-15T08:28:41;13.23;;;9.33;;
12756;SDS011;31601;48.042;12.240;2022-11-15T08:31:11;11.97;;;9.10;;
12756;SDS011;31601;48.042;12.240;2022-11-15T08:33:39;14.50;;;10.07;;
12756;SDS011;31601;48.042;12.240;2022-11-15T08:36:10;10.27;;;8.63;;
12756;SDS011;31601;48.042;12.240;2022-11-15T08:38:39;10.90;;;8.63;;
12756;SDS011;31601;48.042;12.240;2022-11-15T08:41:05;11.80;;;9.70;;
12756;SDS011;31601;48.042;12.240;2022-11-15T08:43:32;12.00;;;9.83;;
12756;SDS011;31601;48.042;12.240;2022-11-15T08:45:58;13.60;;;9.07;;
12756;SDS011;31601;48.042;12.240;2022-11-15T08:48:25;12.23;;;9.47;;
12756;SDS011;31601;48.042;12.240;2022-11-15T08:50:53;13.83;;;10.20;;
12756;SDS011;31601;48.042;12.240;2022-11-15T08:53:21;15.13;;;9.70;;
12756;SDS011;31601;48.042;12.240;2022-11-15T08:55:48;13.70;;;10.93;;
12756;SDS011;31601;48.042;12.240;2022-11-15T08:58:14;12.80;;;10.43;;
12756;SDS011;31601;48.042;12.240;2022-11-15T09:00:41;13.90;;;9.73;;
12756;SDS011;31601;48.042;12.240;2022-11-15T09:03:07;12.17;;;9.43;;
12756;SDS011;31601;48.042;12.240;2022-11-15T09:05:35;11.20;;;8.47;;
12756;SDS011;31601;48.042;12.240;2022-11-15T09:08:02;9.17;;;8.13;;
12756;SDS011;31601;48.042;12.240;2022-11-15T09:10:30;10.20;;;8.47;;
12756;SDS011;31601;48.042;12.240;2022-11-15T09:12:57;11.70;;;8.10;;
12756;SDS011;31601;48.042;12.240;2022-11-15T09:15:25;10.77;;;8.13;;
12756;SDS011;31601;48.042;12.240;2022-11-15T09:17:52;11.50;;;8.57;;
12756;SDS011;31601;48.042;12.240;2022-11-15T09:20:19;7.50;;;6.50;;
12756;SDS011;31601;48.042;12.240;2022-11-15T09:22:45;10.37;;;7.40;;
12756;SDS011;31601;48.042;12.240;2022-11-15T09:25:12;9.30;;;6.60;;
12756;SDS011;31601;48.042;12.240;2022-11-15T09:27:39;8.70;;;7.37;;
12756;SDS011;31601;48.042;12.240;2022-11-15T09:30:06;9.90;;;6.70;;
12756;SDS011;31601;48.042;12.240;2022-11-15T09:32:33;9.40;;;6.87;;
12756;SDS011;31601;48.042;12.240;2022-11-15T09:35:00;7.53;;;6.17;;
12756;SDS011;31601;48.042;12.240;2022-11-15T09:37:27;6.70;;;5.60;;
12756;SDS011;31601;48.042;12.240;2022-11-15T09:39:54;9.77;;;7.33;;
12756;SDS011;31601;48.042;12.240;2022-11-15T09:42:23;8.63;;;6.30;;
12756;SDS011;31601;48.042;12.240;2022-11-15T09:45:03;7.37;;;5.70;;
12756;SDS011;31601;48.042;12.240;2022-11-15T09:47:47;5.87;;;5.27;;
12756;SDS011;31601;48.042;12.240;2022-11-15T09:50:27;8.50;;;5.33;;
12756;SDS011;31601;48.042;12.240;2022-11-15T09:52:58;6.97;;;5.00;;
12756;SDS011;31601;48.042;12.240;2022-11-15T09:55:26;7.13;;;5.93;;
12756;SDS011;31601;48.042;12.240;2022-11-15T09:58:01;5.40;;;4.90;;
12756;SDS011;31601;48.042;12.240;2022-11-15T10:00:38;6.77;;;5.40;;
12756;SDS011;31601;48.042;12.240;2022-11-15T10:03:09;10.83;;;5.60;;
12756;SDS011;31601;48.042;12.240;2022-11-15T10:05:39;6.23;;;5.63;;
12756;SDS011;31601;48.042;12.240;2022-11-15T10:08:11;8.23;;;5.17;;
12756;SDS011;31601;48.042;12.240;2022-11-15T10:10:47;7.03;;;5.50;;
12756;SDS011;31601;48.042;12.240;2022-11-15T10:13:20;8.13;;;6.27;;
12756;SDS011;31601;48.042;12.240;2022-11-15T10:15:51;8.80;;;6.50;;
12756;SDS011;31601;48.042;12.240;2022-11-15T10:18:23;8.07;;;5.10;;
12756;SDS011;31601;48.042;12.240;2022-11-15T10:20:57;6.30;;;5.63;;
12756;SDS011;31601;48.042;12.240;2022-11-15T10:23:25;6.27;;;4.47;;
12756;SDS011;31601;48.042;12.240;2022-11-15T10:25:54;5.70;;;4.53;;
12756;SDS011;31601;48.042;12.240;2022-11-15T10:28:27;6.13;;;4.80;;
12756;SDS011;31601;48.042;12.240;2022-11-15T10:30:56;5.73;;;4.30;;
12756;SDS011;31601;48.042;12.240;2022-11-15T10:33:25;5.20;;;4.63;;
12756;SDS011;31601;48.042;12.240;2022-11-15T10:36:14;6.00;;;4.80;;
12756;SDS011;31601;48.042;12.240;2022-11-15T10:38:53;5.20;;;4.67;;
12756;SDS011;31601;48.042;12.240;2022-11-15T10:41:31;5.40;;;4.90;;
12756;SDS011;31601;48.042;12.240;2022-11-15T10:44:02;6.90;;;4.30;;
12756;SDS011;31601;48.042;12.240;2022-11-15T10:46:46;5.93;;;4.13;;
12756;SDS011;31601;48.042;12.240;2022-11-15T10:49:16;5.47;;;4.27;;
12756;SDS011;31601;48.042;12.240;2022-11-15T10:51:45;5.33;;;4.60;;
12756;SDS011;31601;48.042;12.240;2022-11-15T10:54:14;4.77;;;4.10;;
12756;SDS011;31601;48.042;12.240;2022-11-15T10:56:48;4.27;;;3.87;;
12756;SDS011;31601;48.042;12.240;2022-11-15T10:59:17;6.63;;;4.43;;
12756;SDS011;31601;48.042;12.240;2022-11-15T11:01:52;5.97;;;5.37;;
12756;SDS011;31601;48.042;12.240;2022-11-15T11:04:18;6.40;;;4.23;;
12756;SDS011;31601;48.042;12.240;2022-11-15T11:06:49;5.07;;;4.17;;
12756;SDS011;31601;48.042;12.240;2022-11-15T11:12:00;5.30;;;4.43;;
12756;SDS011;31601;48.042;12.240;2022-11-15T11:14:27;4.87;;;3.97;;
12756;SDS011;31601;48.042;12.240;2022-11-15T11:17:00;7.40;;;4.13;;
12756;SDS011;31601;48.042;12.240;2022-11-15T11:19:37;3.90;;;3.50;;
12756;SDS011;31601;48.042;12.240;2022-11-15T11:22:16;4.13;;;3.70;;
12756;SDS011;31601;48.042;12.240;2022-11-15T11:24:51;6.97;;;5.90;;
12756;SDS011;31601;48.042;12.240;2022-11-15T11:27:32;5.80;;;3.73;;
12756;SDS011;31601;48.042;12.240;2022-11-15T11:30:09;4.03;;;3.63;;
12756;SDS011;31601;48.042;12.240;2022-11-15T11:32:50;3.97;;;3.57;;
12756;SDS011;31601;48.042;12.240;2022-11-15T11:35:24;4.83;;;3.60;;
12756;SDS011;31601;48.042;12.240;2022-11-15T11:37:59;4.83;;;4.07;;
12756;SDS011;31601;48.042;12.240;2022-11-15T11:40:39;9.33;;;4.50;;
12756;SDS011;31601;48.042;12.240;2022-11-15T11:43:12;3.93;;;3.43;;
12756;SDS011;31601;48.042;12.240;2022-11-15T11:45:50;5.73;;;3.93;;
12756;SDS011;31601;48.042;12.240;2022-11-15T11:48:34;7.27;;;3.90;;
12756;SDS011;31601;48.042;12.240;2022-11-15T11:51:08;12.30;;;10.00;;
12756;SDS011;31601;48.042;12.240;2022-11-15T11:53:39;4.33;;;3.60;;
12756;SDS011;31601;48.042;12.240;2022-11-15T11:56:13;4.10;;;3.33;;
12756;SDS011;31601;48.042;12.240;2022-11-15T11:58:46;3.90;;;2.80;;
12756;SDS011;31601;48.042;12.240;2022-11-15T12:01:15;5.17;;;3.27;;
12756;SDS011;31601;48.042;12.240;2022-11-15T12:03:49;2.33;;;2.00;;
12756;SDS011;31601;48.042;12.240;2022-11-15T12:06:21;2.37;;;1.97;;
12756;SDS011;31601;48.042;12.240;2022-11-15T12:08:55;3.50;;;1.93;;
12756;SDS011;31601;48.042;12.240;2022-11-15T12:11:28;7.50;;;4.40;;
12756;SDS011;31601;48.042;12.240;2022-11-15T12:13:59;2.97;;;1.90;;
12756;SDS011;31601;48.042;12.240;2022-11-15T12:16:30;2.00;;;1.80;;
12756;SDS011;31601;48.042;12.240;2022-11-15T12:19:00;2.47;;;1.97;;
12756;SDS011;31601;48.042;12.240;2022-11-15T12:21:32;4.93;;;3.50;;
12756;SDS011;31601;48.042;12.240;2022-11-15T12:24:04;2.43;;;1.80;;
12756;SDS011;31601;48.042;12.240;2022-11-15T12:26:39;3.77;;;1.77;;
12756;SDS011;31601;48.042;12.240;2022-11-15T12:29:10;2.37;;;1.80;;
12756;SDS011;31601;48.042;12.240;2022-11-15T12:31:42;2.10;;;1.90;;
12756;SDS011;31601;48.042;12.240;2022-11-15T12:34:15;4.83;;;1.90;;
12756;SDS011;31601;48.042;12.240;2022-11-15T12:37:00;7.17;;;6.47;;
12756;SDS011;31601;48.042;12.240;2022-11-15T12:42:34;3.73;;;2.70;;
12756;SDS011;31601;48.042;12.240;2022-11-15T12:45:22;5.97;;;2.20;;
12756;SDS011;31601;48.042;12.240;2022-11-15T12:47:51;2.37;;;1.70;;
12756;SDS011;31601;48.042;12.240;2022-11-15T12:50:32;5.30;;;2.00;;
12756;SDS011;31601;48.042;12.240;2022-11-15T12:53:25;2.80;;;2.00;;
12756;SDS011;31601;48.042;12.240;2022-11-15T12:58:48;2.50;;;2.30;;
12756;SDS011;31601;48.042;12.240;2022-11-15T13:04:23;4.50;;;2.10;;
12756;SDS011;31601;48.042;12.240;2022-11-15T13:06:53;2.37;;;1.90;;
12756;SDS011;31601;48.042;12.240;2022-11-15T13:15:37;2.63;;;2.30;;
12756;SDS011;31601;48.042;12.240;2022-11-15T13:18:26;5.43;;;2.13;;
12756;SDS011;31601;48.042;12.240;2022-11-15T13:20:56;2.50;;;1.83;;
12756;SDS011;31601;48.042;12.240;2022-11-15T13:23:24;3.13;;;2.53;;
12756;SDS011;31601;48.042;12.240;2022-11-15T13:28:39;2.40;;;2.20;;
12756;SDS011;31601;48.042;12.240;2022-11-15T13:31:21;3.20;;;2.27;;
12756;SDS011;31601;48.042;12.240;2022-11-15T13:33:50;5.10;;;2.40;;
12756;SDS011;31601;48.042;12.240;2022-11-15T13:36:19;4.50;;;3.13;;
12756;SDS011;31601;48.042;12.240;2022-11-15T13:38:57;3.47;;;2.73;;
12756;SDS011;31601;48.042;12.240;2022-11-15T13:41:26;3.63;;;2.57;;
12756;SDS011;31601;48.042;12.240;2022-11-15T13:43:55;2.60;;;2.40;;
12756;SDS011;31601;48.042;12.240;2022-11-15T13:46:22;3.33;;;2.40;;
12756;SDS011;31601;48.042;12.240;2022-11-15T13:48:52;5.37;;;2.60;;
12756;SDS011;31601;48.042;12.240;2022-11-15T13:51:21;3.57;;;2.60;;
12756;SDS011;31601;48.042;12.240;2022-11-15T13:54:03;2.47;;;2.27;;
12756;SDS011;31601;48.042;12.240;2022-11-15T13:56:39;5.63;;;3.00;;
12756;SDS011;31601;48.042;12.240;2022-11-15T13:59:09;2.80;;;2.50;;
12756;SDS011;31601;48.042;12.240;2022-11-15T14:01:36;2.93;;;2.63;;
12756;SDS011;31601;48.042;12.240;2022-11-15T14:04:03;3.00;;;2.70;;
12756;SDS011;31601;48.042;12.240;2022-11-15T14:06:30;5.23;;;2.80;;
12756;SDS011;31601;48.042;12.240;2022-11-15T14:08:58;3.07;;;2.77;;
12756;SDS011;31601;48.042;12.240;2022-11-15T14:11:28;4.73;;;2.60;;
12756;SDS011;31601;48.042;12.240;2022-11-15T14:14:10;4.47;;;3.90;;
12756;SDS011;31601;48.042;12.240;2022-11-15T14:16:40;4.03;;;3.30;;
12756;SDS011;31601;48.042;12.240;2022-11-15T14:19:09;3.93;;;3.50;;
12756;SDS011;31601;48.042;12.240;2022-11-15T14:21:37;5.13;;;3.30;;
12756;SDS011;31601;48.042;12.240;2022-11-15T14:24:24;4.13;;;3.50;;
12756;SDS011;31601;48.042;12.240;2022-11-15T14:26:58;3.77;;;3.40;;
12756;SDS011;31601;48.042;12.240;2022-11-15T14:29:42;3.80;;;3.50;;
12756;SDS011;31601;48.042;12.240;2022-11-15T14:32:12;4.00;;;3.50;;
12756;SDS011;31601;48.042;12.240;2022-11-15T14:34:40;8.27;;;3.67;;
12756;SDS011;31601;48.042;12.240;2022-11-15T14:37:09;4.13;;;3.50;;
12756;SDS011;31601;48.042;12.240;2022-11-15T14:39:51;4.00;;;3.53;;
12756;SDS011;31601;48.042;12.240;2022-11-15T14:42:20;3.53;;;3.13;;
12756;SDS011;31601;48.042;12.240;2022-11-15T14:44:47;5.37;;;3.50;;
12756;SDS011;31601;48.042;12.240;2022-11-15T14:47:14;5.47;;;3.83;;
12756;SDS011;31601;48.042;12.240;2022-11-15T14:49:41;4.23;;;3.63;;
12756;SDS011;31601;48.042;12.240;2022-11-15T14:52:23;4.27;;;3.87;;
12756;SDS011;31601;48.042;12.240;2022-11-15T14:54:52;6.53;;;4.20;;
12756;SDS011;31601;48.042;12.240;2022-11-15T14:57:20;6.83;;;4.93;;
12756;SDS011;31601;48.042;12.240;2022-11-15T14:59:47;5.83;;;4.67;;
12756;SDS011;31601;48.042;12.240;2022-11-15T15:02:15;5.23;;;4.73;;
12756;SDS011;31601;48.042;12.240;2022-11-15T15:04:44;8.30;;;4.70;;
12756;SDS011;31601;48.042;12.240;2022-11-15T15:07:10;6.83;;;4.70;;
12756;SDS011;31601;48.042;12.240;2022-11-15T15:09:37;6.20;;;4.70;;